Terminal Aerodrome Forecast
Issued by NWS

Home | Current Version | Previous Version | Text Only | Print | Product List | Glossary Off
Versions: 1 2 3 4 5 6 7 8 9 10 11 12 13 14 15 16 17 18 19 20 21 22 23 24 25

000
FTUS43 KGRB 211700
TAFCWA
TAF
KCWA 211737Z 2118/2218 13007KT P6SM SCT006 BKN025
      TEMPO 2118/2120 BKN006
     FM212000 13006KT P6SM BKN030 OVC070
      TEMPO 2120/2124 1SM TSRA BKN015CB
     FM220100 11004KT 5SM BR SCT015 BKN035
     FM220400 VRB03KT 2SM BR BKN004 BKN012
      TEMPO 2208/2212 3/4SM BR BKN003=

USA.gov is the U.S. government's official web portal to all federal, state and local government web resources and services.